sensor_id;sensor_type;location;lat;lon;timestamp;pressure;altitude;pressure_sealevel;temperature;humidity
48390;BME280;34643;47.964;7.982;2023-03-19T00:01:27;96490.88;;;16.46;55.02
48390;BME280;34643;47.964;7.982;2023-03-19T00:06:27;96502.25;;;16.45;55.02
48390;BME280;34643;47.964;7.982;2023-03-19T00:11:27;96504.97;;;16.44;55.02
48390;BME280;34643;47.964;7.982;2023-03-19T00:16:28;96508.41;;;16.44;55.07
48390;BME280;34643;47.964;7.982;2023-03-19T00:21:28;96514.44;;;16.45;54.99
48390;BME280;34643;47.964;7.982;2023-03-19T00:26:30;96514.56;;;16.43;55.22
48390;BME280;34643;47.964;7.982;2023-03-19T00:31:30;96511.97;;;16.43;54.94
48390;BME280;34643;47.964;7.982;2023-03-19T00:36:30;96519.78;;;16.43;55.10
48390;BME280;34643;47.964;7.982;2023-03-19T00:41:31;96525.91;;;16.42;54.96
48390;BME280;34643;47.964;7.982;2023-03-19T00:46:31;96524.25;;;16.41;55.10
48390;BME280;34643;47.964;7.982;2023-03-19T00:51:31;96525.09;;;16.42;54.96
48390;BME280;34643;47.964;7.982;2023-03-19T00:56:32;96533.03;;;16.40;55.17
48390;BME280;34643;47.964;7.982;2023-03-19T01:01:32;96530.41;;;16.40;55.06
48390;BME280;34643;47.964;7.982;2023-03-19T01:06:32;96539.97;;;16.40;55.00
48390;BME280;34643;47.964;7.982;2023-03-19T01:11:32;96537.53;;;16.38;55.10
48390;BME280;34643;47.964;7.982;2023-03-19T01:16:33;96545.34;;;16.38;55.15
48390;BME280;34643;47.964;7.982;2023-03-19T01:21:36;96545.34;;;16.38;55.14
48390;BME280;34643;47.964;7.982;2023-03-19T01:26:37;96548.88;;;16.37;55.24
48390;BME280;34643;47.964;7.982;2023-03-19T01:31:53;96544.38;;;16.39;55.04
48390;BME280;34643;47.964;7.982;2023-03-19T01:37:11;96541.88;;;16.38;55.07
48390;BME280;34643;47.964;7.982;2023-03-19T01:42:12;96538.44;;;16.37;54.96
48390;BME280;34643;47.964;7.982;2023-03-19T01:47:29;96533.34;;;16.35;55.15
48390;BME280;34643;47.964;7.982;2023-03-19T01:52:56;96525.53;;;16.35;55.00
48390;BME280;34643;47.964;7.982;2023-03-19T01:58:04;96531.56;;;16.36;55.16
48390;BME280;34643;47.964;7.982;2023-03-19T02:03:26;96531.72;;;16.34;55.00
48390;BME280;34643;47.964;7.982;2023-03-19T02:08:34;96536.06;;;16.34;55.18
48390;BME280;34643;47.964;7.982;2023-03-19T02:13:34;96534.31;;;16.34;54.96
48390;BME280;34643;47.964;7.982;2023-03-19T02:18:35;96540.47;;;16.33;55.23
48390;BME280;34643;47.964;7.982;2023-03-19T02:29:02;96532.75;;;16.32;55.16
48390;BME280;34643;47.964;7.982;2023-03-19T02:34:31;96530.97;;;16.32;55.05
48390;BME280;34643;47.964;7.982;2023-03-19T02:39:29;96540.56;;;16.32;55.27
48390;BME280;34643;47.964;7.982;2023-03-19T02:44:31;96530.25;;;16.30;55.05
48390;BME280;34643;47.964;7.982;2023-03-19T02:49:31;96531.09;;;16.31;55.43
48390;BME280;34643;47.964;7.982;2023-03-19T02:54:32;96531.22;;;16.29;55.07
48390;BME280;34643;47.964;7.982;2023-03-19T02:59:32;96527.75;;;16.29;55.22
48390;BME280;34643;47.964;7.982;2023-03-19T03:04:32;96532.97;;;16.29;54.97
48390;BME280;34643;47.964;7.982;2023-03-19T03:09:34;96527.75;;;16.29;55.21
48390;BME280;34643;47.964;7.982;2023-03-19T03:14:34;96532.25;;;16.27;55.13
48390;BME280;34643;47.964;7.982;2023-03-19T03:19:35;96532.25;;;16.27;55.21
48390;BME280;34643;47.964;7.982;2023-03-19T03:24:35;96537.47;;;16.27;55.04
48390;BME280;34643;47.964;7.982;2023-03-19T03:29:35;96531.44;;;16.26;55.07
48390;BME280;34643;47.964;7.982;2023-03-19T03:34:36;96537.56;;;16.25;55.11
48390;BME280;34643;47.964;7.982;2023-03-19T03:39:36;96528.94;;;16.25;55.01
48390;BME280;34643;47.964;7.982;2023-03-19T03:44:37;96536.75;;;16.25;54.99
48390;BME280;34643;47.964;7.982;2023-03-19T03:49:38;96547.28;;;16.23;55.15
48390;BME280;34643;47.964;7.982;2023-03-19T03:54:38;96547.28;;;16.23;54.92
48390;BME280;34643;47.964;7.982;2023-03-19T03:59:38;96539.56;;;16.22;55.09
48390;BME280;34643;47.964;7.982;2023-03-19T04:04:38;96550.84;;;16.22;54.96
48390;BME280;34643;47.964;7.982;2023-03-19T04:09:39;96556.06;;;16.22;55.11
48390;BME280;34643;47.964;7.982;2023-03-19T04:14:39;96553.56;;;16.21;55.03
48390;BME280;34643;47.964;7.982;2023-03-19T04:19:39;96570.00;;;16.21;55.05
48390;BME280;34643;47.964;7.982;2023-03-19T04:24:40;96556.25;;;16.19;55.01
48390;BME280;34643;47.964;7.982;2023-03-19T04:29:40;96569.28;;;16.19;55.15
48390;BME280;34643;47.964;7.982;2023-03-19T04:34:41;96571.88;;;16.19;55.07
48390;BME280;34643;47.964;7.982;2023-03-19T04:39:41;96580.63;;;16.18;54.99
48390;BME280;34643;47.964;7.982;2023-03-19T04:44:43;96577.09;;;16.19;55.00
48390;BME280;34643;47.964;7.982;2023-03-19T04:49:45;96574.59;;;16.18;55.05
48390;BME280;34643;47.964;7.982;2023-03-19T04:54:46;96567.72;;;16.16;55.11
48390;BME280;34643;47.964;7.982;2023-03-19T04:59:46;96567.72;;;16.16;55.15
48390;BME280;34643;47.964;7.982;2023-03-19T05:04:48;96577.31;;;16.16;55.08
48390;BME280;34643;47.964;7.982;2023-03-19T05:09:48;96573.88;;;16.15;55.03
48390;BME280;34643;47.964;7.982;2023-03-19T05:14:50;96572.22;;;16.14;55.02
48390;BME280;34643;47.964;7.982;2023-03-19T05:19:54;96571.50;;;16.12;55.18
48390;BME280;34643;47.964;7.982;2023-03-19T05:24:54;96569.72;;;16.13;55.18
48390;BME280;34643;47.964;7.982;2023-03-19T05:29:56;96580.13;;;16.13;55.19
48390;BME280;34643;47.964;7.982;2023-03-19T05:35:11;96585.34;;;16.13;55.03
48390;BME280;34643;47.964;7.982;2023-03-19T05:40:12;96579.41;;;16.11;55.13
48390;BME280;34643;47.964;7.982;2023-03-19T05:45:16;96578.59;;;16.10;55.18
48390;BME280;34643;47.964;7.982;2023-03-19T05:50:21;96579.41;;;16.11;55.05
48390;BME280;34643;47.964;7.982;2023-03-19T05:55:41;96581.19;;;16.10;55.16
48390;BME280;34643;47.964;7.982;2023-03-19T06:00:44;96583.81;;;16.10;55.38
48390;BME280;34643;47.964;7.982;2023-03-19T06:05:47;96580.47;;;16.08;54.99
48390;BME280;34643;47.964;7.982;2023-03-19T06:11:07;96589.13;;;16.09;54.93
48390;BME280;34643;47.964;7.982;2023-03-19T06:16:08;96585.69;;;16.08;55.07
48390;BME280;34643;47.964;7.982;2023-03-19T06:21:15;96587.47;;;16.08;55.09
48390;BME280;34643;47.964;7.982;2023-03-19T06:26:16;96591.72;;;16.09;55.11
48390;BME280;34643;47.964;7.982;2023-03-19T06:31:25;96603.91;;;16.08;55.06
48390;BME280;34643;47.964;7.982;2023-03-19T06:36:26;96611.72;;;16.08;55.09
48390;BME280;34643;47.964;7.982;2023-03-19T06:41:26;96616.94;;;16.08;54.94
48390;BME280;34643;47.964;7.982;2023-03-19T06:46:33;96609.22;;;16.07;55.21
48390;BME280;34643;47.964;7.982;2023-03-19T06:51:33;96604.94;;;16.06;55.05
48390;BME280;34643;47.964;7.982;2023-03-19T06:56:33;96613.63;;;16.06;55.14
48390;BME280;34643;47.964;7.982;2023-03-19T07:01:34;96614.53;;;16.05;54.92
48390;BME280;34643;47.964;7.982;2023-03-19T07:06:35;96634.44;;;16.06;55.06
48390;BME280;34643;47.964;7.982;2023-03-19T07:11:35;96635.38;;;16.05;55.10
48390;BME280;34643;47.964;7.982;2023-03-19T07:16:35;96627.56;;;16.05;55.18
48390;BME280;34643;47.964;7.982;2023-03-19T07:21:36;96632.75;;;16.05;55.05
48390;BME280;34643;47.964;7.982;2023-03-19T07:26:36;96635.25;;;16.07;55.01
48390;BME280;34643;47.964;7.982;2023-03-19T07:31:36;96643.91;;;16.07;54.93
48390;BME280;34643;47.964;7.982;2023-03-19T07:36:37;96647.34;;;16.08;54.87
48390;BME280;34643;47.964;7.982;2023-03-19T07:41:37;96641.28;;;16.07;54.98
48390;BME280;34643;47.964;7.982;2023-03-19T07:46:37;96646.50;;;16.07;55.09
48390;BME280;34643;47.964;7.982;2023-03-19T07:51:37;96648.19;;;16.08;54.93
48390;BME280;34643;47.964;7.982;2023-03-19T07:56:38;96647.34;;;16.08;54.94
48390;BME280;34643;47.964;7.982;2023-03-19T08:01:39;96652.31;;;16.11;55.05
48390;BME280;34643;47.964;7.982;2023-03-19T08:06:39;96649.63;;;16.12;54.90
48390;BME280;34643;47.964;7.982;2023-03-19T08:11:39;96644.09;;;16.17;54.55
48390;BME280;34643;47.964;7.982;2023-03-19T08:16:40;96647.41;;;16.19;54.70
48390;BME280;34643;47.964;7.982;2023-03-19T08:21:40;96643.97;;;16.19;54.75
48390;BME280;34643;47.964;7.982;2023-03-19T08:26:40;96637.81;;;16.20;54.77
48390;BME280;34643;47.964;7.982;2023-03-19T08:31:40;96632.59;;;16.20;54.69
48390;BME280;34643;47.964;7.982;2023-03-19T08:36:41;96640.41;;;16.20;54.75
48390;BME280;34643;47.964;7.982;2023-03-19T08:41:41;96640.31;;;16.21;54.66
48390;BME280;34643;47.964;7.982;2023-03-19T08:46:41;96638.53;;;16.22;54.67
48390;BME280;34643;47.964;7.982;2023-03-19T08:51:42;96634.19;;;16.22;54.66
48390;BME280;34643;47.964;7.982;2023-03-19T08:56:42;96644.59;;;16.22;54.95
48390;BME280;34643;47.964;7.982;2023-03-19T09:01:42;96652.41;;;16.22;54.81
48390;BME280;34643;47.964;7.982;2023-03-19T09:06:43;96650.41;;;16.26;54.99
48390;BME280;34643;47.964;7.982;2023-03-19T09:11:44;96657.88;;;16.30;54.87
48390;BME280;34643;47.964;7.982;2023-03-19T09:16:45;96661.69;;;16.38;55.03
48390;BME280;34643;47.964;7.982;2023-03-19T09:21:45;96665.66;;;16.43;54.91
48390;BME280;34643;47.964;7.982;2023-03-19T09:26:46;96655.00;;;16.46;55.04
48390;BME280;34643;47.964;7.982;2023-03-19T09:31:46;96660.00;;;16.49;54.76
48390;BME280;34643;47.964;7.982;2023-03-19T09:36:46;96659.06;;;16.50;55.00
48390;BME280;34643;47.964;7.982;2023-03-19T09:42:02;96664.28;;;16.50;55.19
48390;BME280;34643;47.964;7.982;2023-03-19T09:57:28;96655.28;;;16.54;55.38
48390;BME280;34643;47.964;7.982;2023-03-19T10:02:41;96661.91;;;16.59;55.34
48390;BME280;34643;47.964;7.982;2023-03-19T10:23:13;96664.19;;;16.63;55.47
48390;BME280;34643;47.964;7.982;2023-03-19T10:28:18;96657.00;;;16.67;55.43
48390;BME280;34643;47.964;7.982;2023-03-19T10:38:22;96663.25;;;16.64;55.52
48390;BME280;34643;47.964;7.982;2023-03-19T10:43:23;96670.03;;;16.67;55.45
48390;BME280;34643;47.964;7.982;2023-03-19T10:48:25;96667.06;;;16.71;55.30
48390;BME280;34643;47.964;7.982;2023-03-19T10:58:27;96677.28;;;16.75;55.33
48390;BME280;34643;47.964;7.982;2023-03-19T11:03:28;96676.44;;;16.74;55.54
48390;BME280;34643;47.964;7.982;2023-03-19T11:08:32;96673.84;;;16.74;55.29
48390;BME280;34643;47.964;7.982;2023-03-19T11:13:33;96669.34;;;16.76;55.44
48390;BME280;34643;47.964;7.982;2023-03-19T11:18:36;96665.81;;;16.77;55.29
48390;BME280;34643;47.964;7.982;2023-03-19T11:23:38;96666.63;;;16.78;55.46
48390;BME280;34643;47.964;7.982;2023-03-19T11:28:40;96667.34;;;16.80;55.41
48390;BME280;34643;47.964;7.982;2023-03-19T11:49:10;96647.84;;;16.85;55.26
48390;BME280;34643;47.964;7.982;2023-03-19T11:54:21;96652.13;;;16.86;55.44
48390;BME280;34643;47.964;7.982;2023-03-19T12:04:40;96644.06;;;16.89;55.41
48390;BME280;34643;47.964;7.982;2023-03-19T12:15:12;96635.41;;;16.89;55.23
48390;BME280;34643;47.964;7.982;2023-03-19T12:25:59;96624.97;;;16.89;55.41
48390;BME280;34643;47.964;7.982;2023-03-19T12:31:14;96637.78;;;16.92;55.45
48390;BME280;34643;47.964;7.982;2023-03-19T12:36:20;96630.19;;;16.89;55.18
48390;BME280;34643;47.964;7.982;2023-03-19T12:41:23;96626.88;;;16.87;55.32
48390;BME280;34643;47.964;7.982;2023-03-19T12:46:25;96643.34;;;16.87;55.23
48390;BME280;34643;47.964;7.982;2023-03-19T12:51:27;96634.69;;;16.87;55.26
48390;BME280;34643;47.964;7.982;2023-03-19T13:01:42;96635.75;;;16.84;55.23
48390;BME280;34643;47.964;7.982;2023-03-19T13:06:46;96633.97;;;16.85;55.15
48390;BME280;34643;47.964;7.982;2023-03-19T13:12:04;96632.19;;;16.85;55.24
48390;BME280;34643;47.964;7.982;2023-03-19T13:22:20;96639.38;;;16.82;55.17
48390;BME280;34643;47.964;7.982;2023-03-19T13:27:22;96629.78;;;16.82;55.04
48390;BME280;34643;47.964;7.982;2023-03-19T13:32:25;96631.56;;;16.82;55.23
48390;BME280;34643;47.964;7.982;2023-03-19T13:37:26;96627.41;;;16.79;55.05
48390;BME280;34643;47.964;7.982;2023-03-19T13:42:39;96626.56;;;16.79;55.04
48390;BME280;34643;47.964;7.982;2023-03-19T13:47:41;96628.34;;;16.78;55.08
48390;BME280;34643;47.964;7.982;2023-03-19T13:57:43;96622.44;;;16.76;55.07
48390;BME280;34643;47.964;7.982;2023-03-19T14:03:00;96617.44;;;16.73;55.29
48390;BME280;34643;47.964;7.982;2023-03-19T14:08:01;96619.09;;;16.74;55.03
48390;BME280;34643;47.964;7.982;2023-03-19T14:13:17;96615.78;;;16.72;55.24
48390;BME280;34643;47.964;7.982;2023-03-19T14:18:20;96621.00;;;16.72;54.96
48390;BME280;34643;47.964;7.982;2023-03-19T14:23:22;96619.31;;;16.71;55.18
48390;BME280;34643;47.964;7.982;2023-03-19T14:28:27;96615.06;;;16.70;55.00
48390;BME280;34643;47.964;7.982;2023-03-19T14:33:38;96611.72;;;16.68;55.22
48390;BME280;34643;47.964;7.982;2023-03-19T14:38:39;96617.91;;;16.67;54.97
48390;BME280;34643;47.964;7.982;2023-03-19T14:43:51;96615.50;;;16.64;55.16
48390;BME280;34643;47.964;7.982;2023-03-19T14:53:57;96624.16;;;16.64;55.20
48390;BME280;34643;47.964;7.982;2023-03-19T14:59:01;96634.69;;;16.63;55.01
48390;BME280;34643;47.964;7.982;2023-03-19T15:04:05;96642.50;;;16.63;54.88
48390;BME280;34643;47.964;7.982;2023-03-19T15:09:17;96645.34;;;16.60;55.32
48390;BME280;34643;47.964;7.982;2023-03-19T15:19:24;96655.06;;;16.58;55.00
48390;BME280;34643;47.964;7.982;2023-03-19T15:24:25;96664.75;;;16.56;55.12
48390;BME280;34643;47.964;7.982;2023-03-19T15:29:32;96665.69;;;16.54;55.15
48390;BME280;34643;47.964;7.982;2023-03-19T15:34:32;96662.13;;;16.56;55.12
48390;BME280;34643;47.964;7.982;2023-03-19T15:39:34;96664.88;;;16.54;55.12
48390;BME280;34643;47.964;7.982;2023-03-19T15:44:36;96658.81;;;16.53;55.07
48390;BME280;34643;47.964;7.982;2023-03-19T15:49:40;96667.34;;;16.56;54.91
48390;BME280;34643;47.964;7.982;2023-03-19T15:54:42;96669.03;;;16.57;54.87
48390;BME280;34643;47.964;7.982;2023-03-19T15:59:42;96666.31;;;16.58;54.95
48390;BME280;34643;47.964;7.982;2023-03-19T16:04:43;96671.66;;;16.68;55.09
48390;BME280;34643;47.964;7.982;2023-03-19T16:09:45;96669.91;;;16.68;54.93
48390;BME280;34643;47.964;7.982;2023-03-19T16:14:45;96674.28;;;16.68;55.04
48390;BME280;34643;47.964;7.982;2023-03-19T16:24:48;96675.94;;;16.69;55.16
48390;BME280;34643;47.964;7.982;2023-03-19T16:29:57;96675.03;;;16.70;55.10
48390;BME280;34643;47.964;7.982;2023-03-19T16:35:05;96673.22;;;16.70;55.02
48390;BME280;34643;47.964;7.982;2023-03-19T16:50:18;96687.03;;;16.84;55.66
48390;BME280;34643;47.964;7.982;2023-03-19T16:55:22;96692.25;;;16.84;55.61
48390;BME280;34643;47.964;7.982;2023-03-19T17:00:23;96695.72;;;16.84;55.91
48390;BME280;34643;47.964;7.982;2023-03-19T17:05:24;96696.53;;;16.85;55.81
48390;BME280;34643;47.964;7.982;2023-03-19T17:10:25;96695.34;;;16.89;55.76
48390;BME280;34643;47.964;7.982;2023-03-19T17:15:27;96701.53;;;16.88;55.86
48390;BME280;34643;47.964;7.982;2023-03-19T17:20:35;96699.53;;;16.91;55.81
48390;BME280;34643;47.964;7.982;2023-03-19T17:25:36;96704.50;;;16.95;55.84
48390;BME280;34643;47.964;7.982;2023-03-19T17:30:37;96709.72;;;16.95;55.87
48390;BME280;34643;47.964;7.982;2023-03-19T17:35:37;96702.75;;;16.95;55.71
48390;BME280;34643;47.964;7.982;2023-03-19T17:40:37;96717.44;;;16.96;55.81
48390;BME280;34643;47.964;7.982;2023-03-19T17:45:38;96721.81;;;16.96;55.72
48390;BME280;34643;47.964;7.982;2023-03-19T17:50:41;96715.53;;;16.98;55.68
48390;BME280;34643;47.964;7.982;2023-03-19T17:55:41;96714.72;;;16.98;55.62
48390;BME280;34643;47.964;7.982;2023-03-19T18:00:42;96732.03;;;16.99;55.83
48390;BME280;34643;47.964;7.982;2023-03-19T18:05:42;96739.59;;;17.02;55.57
48390;BME280;34643;47.964;7.982;2023-03-19T18:10:43;96754.31;;;17.03;55.60
48390;BME280;34643;47.964;7.982;2023-03-19T18:15:43;96764.75;;;17.03;55.59
48390;BME280;34643;47.964;7.982;2023-03-19T18:20:44;96760.25;;;17.05;55.74
48390;BME280;34643;47.964;7.982;2023-03-19T18:25:46;96765.47;;;17.05;55.80
48390;BME280;34643;47.964;7.982;2023-03-19T18:30:46;96771.19;;;17.10;55.47
48390;BME280;34643;47.964;7.982;2023-03-19T18:35:46;96774.41;;;17.14;55.77
48390;BME280;34643;47.964;7.982;2023-03-19T18:40:47;96797.75;;;17.15;55.62
48390;BME280;34643;47.964;7.982;2023-03-19T18:45:49;96858.50;;;17.28;56.18
48390;BME280;34643;47.964;7.982;2023-03-19T18:50:50;96864.50;;;17.42;56.95
48390;BME280;34643;47.964;7.982;2023-03-19T18:55:51;96880.78;;;17.45;57.56
48390;BME280;34643;47.964;7.982;2023-03-19T19:00:51;96900.81;;;17.45;58.25
48390;BME280;34643;47.964;7.982;2023-03-19T19:05:52;96905.59;;;17.51;59.02
48390;BME280;34643;47.964;7.982;2023-03-19T19:10:55;96902.97;;;17.51;58.66
48390;BME280;34643;47.964;7.982;2023-03-19T19:15:57;96902.25;;;17.49;58.75
48390;BME280;34643;47.964;7.982;2023-03-19T19:20:57;96904.72;;;17.39;58.08
48390;BME280;34643;47.964;7.982;2023-03-19T19:25:59;96900.03;;;17.32;58.29
48390;BME280;34643;47.964;7.982;2023-03-19T19:31:00;96893.28;;;17.29;58.18
48390;BME280;34643;47.964;7.982;2023-03-19T19:36:01;96898.72;;;17.26;58.27
48390;BME280;34643;47.964;7.982;2023-03-19T19:41:01;96888.28;;;17.26;57.92
48390;BME280;34643;47.964;7.982;2023-03-19T19:46:01;96876.91;;;17.27;58.26
48390;BME280;34643;47.964;7.982;2023-03-19T19:51:01;96870.72;;;17.28;58.04
48390;BME280;34643;47.964;7.982;2023-03-19T19:56:10;96857.91;;;17.25;58.26
48390;BME280;34643;47.964;7.982;2023-03-19T20:01:17;96858.84;;;17.24;58.41
48390;BME280;34643;47.964;7.982;2023-03-19T20:06:17;96854.69;;;17.21;58.45
48390;BME280;34643;47.964;7.982;2023-03-19T20:11:19;96854.81;;;17.20;58.49
48390;BME280;34643;47.964;7.982;2023-03-19T20:16:21;96856.47;;;17.21;58.92
48390;BME280;34643;47.964;7.982;2023-03-19T20:21:22;96860.84;;;17.20;58.90
48390;BME280;34643;47.964;7.982;2023-03-19T20:26:22;96865.25;;;17.20;58.91
48390;BME280;34643;47.964;7.982;2023-03-19T20:31:26;96871.41;;;17.19;59.03
48390;BME280;34643;47.964;7.982;2023-03-19T20:36:28;96876.72;;;17.17;59.19
48390;BME280;34643;47.964;7.982;2023-03-19T20:41:28;96878.50;;;17.17;59.05
48390;BME280;34643;47.964;7.982;2023-03-19T20:46:28;96878.41;;;17.18;59.21
48390;BME280;34643;47.964;7.982;2023-03-19T20:51:29;96875.91;;;17.17;59.10
48390;BME280;34643;47.964;7.982;2023-03-19T20:56:30;96889.03;;;17.15;59.30
48390;BME280;34643;47.964;7.982;2023-03-19T21:01:30;96887.88;;;17.19;59.34
48390;BME280;34643;47.964;7.982;2023-03-19T21:06:31;96889.56;;;17.20;59.17
48390;BME280;34643;47.964;7.982;2023-03-19T21:11:36;96890.88;;;17.26;58.98
48390;BME280;34643;47.964;7.982;2023-03-19T21:16:37;96903.00;;;17.27;59.13
48390;BME280;34643;47.964;7.982;2023-03-19T21:21:37;96901.53;;;17.23;59.11
48390;BME280;34643;47.964;7.982;2023-03-19T21:26:38;96902.38;;;17.23;59.30
48390;BME280;34643;47.964;7.982;2023-03-19T21:31:39;96921.34;;;17.25;59.17
48390;BME280;34643;47.964;7.982;2023-03-19T21:36:40;96923.72;;;17.28;59.64
48390;BME280;34643;47.964;7.982;2023-03-19T21:41:40;96940.44;;;17.26;59.51
48390;BME280;34643;47.964;7.982;2023-03-19T21:46:41;96941.00;;;17.18;59.52
48390;BME280;34643;47.964;7.982;2023-03-19T21:51:43;96948.09;;;17.16;59.84
48390;BME280;34643;47.964;7.982;2023-03-19T21:56:45;96944.63;;;17.16;59.52
48390;BME280;34643;47.964;7.982;2023-03-19T22:01:46;96942.13;;;17.14;59.88
48390;BME280;34643;47.964;7.982;2023-03-19T22:06:46;96943.09;;;17.13;59.83
48390;BME280;34643;47.964;7.982;2023-03-19T22:11:48;96950.09;;;17.13;59.78
48390;BME280;34643;47.964;7.982;2023-03-19T22:16:48;96953.53;;;17.13;59.71
48390;BME280;34643;47.964;7.982;2023-03-19T22:21:51;96965.59;;;17.14;59.90
48390;BME280;34643;47.964;7.982;2023-03-19T22:26:54;96965.59;;;17.14;59.74
48390;BME280;34643;47.964;7.982;2023-03-19T22:31:55;96974.28;;;17.15;60.03
48390;BME280;34643;47.964;7.982;2023-03-19T22:36:55;96980.44;;;17.14;60.06
48390;BME280;34643;47.964;7.982;2023-03-19T22:41:56;96989.09;;;17.14;59.90
48390;BME280;34643;47.964;7.982;2023-03-19T22:46:57;96991.59;;;17.16;59.98
48390;BME280;34643;47.964;7.982;2023-03-19T22:51:58;96984.00;;;17.13;59.97
48390;BME280;34643;47.964;7.982;2023-03-19T22:56:58;96981.41;;;17.13;59.92
48390;BME280;34643;47.964;7.982;2023-03-19T23:01:58;96977.81;;;17.14;60.16
48390;BME280;34643;47.964;7.982;2023-03-19T23:06:59;96981.25;;;17.14;60.09
48390;BME280;34643;47.964;7.982;2023-03-19T23:12:00;96989.94;;;17.15;60.04
48390;BME280;34643;47.964;7.982;2023-03-19T23:17:02;96984.63;;;17.16;59.77
48390;BME280;34643;47.964;7.982;2023-03-19T23:22:05;96982.94;;;17.15;60.11
48390;BME280;34643;47.964;7.982;2023-03-19T23:27:11;96986.47;;;17.14;60.07
48390;BME280;34643;47.964;7.982;2023-03-19T23:32:18;96989.84;;;17.16;59.82
48390;BME280;34643;47.964;7.982;2023-03-19T23:37:18;96980.44;;;17.14;59.80
48390;BME280;34643;47.964;7.982;2023-03-19T23:42:26;96981.41;;;17.13;60.07
48390;BME280;34643;47.964;7.982;2023-03-19T23:47:27;96985.84;;;17.10;59.90
48390;BME280;34643;47.964;7.982;2023-03-19T23:52:27;96979.63;;;17.13;60.20
48390;BME280;34643;47.964;7.982;2023-03-19T23:57:28;96979.63;;;17.13;60.08
